createdAt,value
2019-04-25T00:01:55.044Z,0.99
2019-04-25T00:07:02.514Z,1.14
2019-04-25T00:12:09.923Z,1.14
2019-04-25T00:17:17.666Z,1.02
2019-04-25T00:22:25.320Z,1.09
2019-04-25T00:27:32.741Z,1.04
2019-04-25T00:32:42.148Z,0.98
2019-04-25T00:37:47.761Z,1.14
2019-04-25T00:42:54.467Z,1.14
2019-04-25T00:48:02.443Z,1.15
2019-04-25T00:53:08.740Z,1.14
2019-04-25T00:58:16.279Z,1.14
2019-04-25T01:03:23.769Z,1.21
2019-04-25T01:08:31.962Z,1.20
2019-04-25T01:13:38.102Z,1.19
2019-04-25T01:18:46.644Z,1.16
2019-04-25T01:23:53.666Z,1.24
2019-04-25T01:28:58.898Z,1.16
2019-04-25T01:34:06.387Z,1.15
2019-04-25T01:39:14.397Z,1.18
2019-04-25T01:44:21.436Z,1.09
2019-04-25T01:49:29.125Z,1.16
2019-04-25T01:54:36.691Z,1.16
2019-04-25T01:59:44.271Z,1.03
2019-04-25T02:04:53.029Z,1.14
2019-04-25T02:09:59.407Z,1.28
2019-04-25T02:15:06.242Z,1.15
2019-04-25T02:20:13.968Z,1.13
2019-04-25T02:25:20.899Z,1.04
2019-04-25T02:30:28.275Z,1.06
2019-04-25T02:35:35.697Z,1.14
2019-04-25T02:40:45.413Z,1.10
2019-04-25T02:45:51.059Z,1.08
2019-04-25T02:50:59.664Z,1.10
2019-04-25T02:56:25.688Z,1.20
2019-04-25T03:01:18.010Z,0.99
2019-04-25T03:06:21.032Z,1.18
2019-04-25T03:11:28.379Z,1.18
2019-04-25T03:16:35.848Z,1.08
2019-04-25T03:21:45.220Z,1.10
2019-04-25T03:26:50.789Z,1.16
2019-04-25T03:31:58.533Z,1.04
2019-04-25T03:37:06.544Z,1.17
2019-04-25T03:42:14.102Z,1.07
2019-04-25T03:47:21.565Z,1.08
2019-04-25T03:52:28.950Z,1.15
2019-04-25T03:57:36.464Z,1.05
2019-04-25T04:02:44.361Z,1.03
2019-04-25T04:07:51.415Z,1.14
2019-04-25T04:12:59.050Z,1.12
2019-04-25T04:18:07.167Z,1.23
2019-04-25T04:23:14.073Z,1.14
2019-04-25T04:28:20.804Z,1.22
2019-04-25T04:33:32.267Z,1.20
2019-04-25T04:38:35.471Z,1.14
2019-04-25T04:43:44.119Z,1.07
2019-04-25T04:48:50.338Z,1.32
2019-04-25T04:53:58.134Z,1.29
2019-04-25T04:59:05.763Z,1.14
2019-04-25T05:04:14.929Z,1.21
2019-04-25T05:09:20.772Z,1.17
2019-04-25T05:14:28.330Z,1.16
2019-04-25T05:19:35.981Z,1.26
2019-04-25T05:24:43.865Z,1.13
2019-04-25T05:29:53.944Z,1.26
2019-04-25T05:34:59.669Z,1.20
2019-04-25T05:40:07.317Z,1.20
2019-04-25T05:45:16.016Z,1.06
2019-04-25T05:50:24.262Z,1.12
2019-04-25T05:55:30.097Z,1.16
2019-04-25T06:00:37.766Z,1.28
2019-04-25T06:05:45.298Z,1.31
2019-04-25T06:10:53.813Z,1.27
2019-04-25T06:16:00.316Z,1.20
2019-04-25T06:21:07.824Z,1.28
2019-04-25T06:26:22.534Z,1.20
2019-04-25T06:31:23.837Z,1.33
2019-04-25T06:36:30.495Z,1.26
2019-04-25T06:41:38.034Z,1.32
2019-04-25T06:46:45.623Z,1.21
2019-04-25T06:51:54.585Z,1.16
2019-04-25T06:57:00.597Z,1.44
2019-04-25T07:02:07.983Z,1.38
2019-04-25T07:07:15.319Z,1.22
2019-04-25T07:12:27.613Z,1.32
2019-04-25T07:17:31.390Z,1.10
2019-04-25T07:22:39.400Z,1.09
2019-04-25T07:27:47.372Z,1.06
2019-04-25T07:32:55.170Z,1.20
2019-04-25T07:38:04.013Z,1.14
2019-04-25T07:43:10.218Z,1.10
2019-04-25T07:48:17.853Z,1.15
2019-04-25T07:53:28.081Z,1.16
2019-04-25T07:58:45.360Z,1.27
2019-04-25T08:03:40.806Z,1.13
2019-04-25T08:08:48.625Z,1.21
2019-04-25T08:13:56.295Z,1.27
2019-04-25T08:19:04.160Z,1.08
2019-04-25T08:24:13.950Z,1.10
2019-04-25T08:29:19.886Z,1.07
2019-04-25T08:34:27.422Z,1.18
2019-04-25T08:39:38.034Z,1.13
2019-04-25T08:44:44.838Z,1.08
2019-04-25T08:49:51.082Z,1.13
2019-04-25T08:55:00.352Z,1.07
2019-04-25T09:00:08.502Z,1.07
2019-04-25T09:05:16.132Z,1.02
2019-04-25T09:10:23.806Z,0.95
2019-04-25T09:15:33.725Z,1.04
2019-04-25T09:20:40.831Z,0.93
2019-04-25T09:25:46.797Z,1.12
2019-04-25T09:30:54.438Z,1.04
2019-04-25T09:36:01.970Z,1.01
2019-04-25T09:41:09.452Z,1.06
2019-04-25T09:46:16.926Z,1.07
2019-04-25T09:51:24.399Z,1.02
2019-04-25T09:56:33.957Z,1.05
2019-04-25T10:01:40.194Z,0.99
2019-04-25T10:06:48.063Z,0.97
2019-04-25T10:11:55.418Z,1.04
2019-04-25T10:17:03.787Z,1.03
2019-04-25T10:22:10.628Z,1.33
2019-04-25T10:27:17.957Z,1.02
2019-04-25T10:32:25.434Z,1.17
2019-04-25T10:37:35.293Z,1.01
2019-04-25T10:42:42.434Z,1.09
2019-04-25T10:47:50.516Z,1.29
2019-04-25T10:52:58.614Z,1.10
2019-04-25T10:58:06.933Z,1.14
2019-04-25T11:03:15.191Z,1.23
2019-04-25T11:08:24.554Z,1.04
2019-04-25T11:13:31.603Z,1.08
2019-04-25T11:18:39.344Z,0.98
2019-04-25T11:23:48.841Z,1.06
2019-04-25T11:28:56.455Z,0.82
2019-04-25T11:34:03.709Z,1.02
2019-04-25T11:39:11.145Z,1.13
2019-04-25T11:44:18.867Z,0.97
2019-04-25T11:49:27.480Z,0.97
2019-04-25T11:54:36.250Z,0.81
2019-04-25T11:59:45.201Z,0.96
2019-04-25T12:04:51.278Z,0.98
2019-04-25T12:09:58.970Z,0.89
2019-04-25T12:15:08.874Z,0.95
2019-04-25T12:20:18.354Z,0.91
2019-04-25T12:25:26.371Z,0.87
2019-04-25T12:30:38.199Z,0.87
2019-04-25T12:35:43.715Z,0.95
2019-04-25T12:40:50.004Z,0.98
2019-04-25T12:45:56.501Z,0.86
2019-04-25T12:51:04.027Z,0.90
2019-04-25T12:56:11.520Z,0.86
2019-04-25T13:01:19.320Z,0.91
2019-04-25T13:06:26.732Z,0.89
2019-04-25T13:11:34.866Z,0.88
2019-04-25T13:16:41.659Z,0.96
2019-04-25T13:21:50.547Z,1.01
2019-04-25T13:26:58.562Z,0.82
2019-04-25T13:32:06.230Z,0.85
2019-04-25T13:37:14.125Z,0.92
2019-04-25T13:42:20.286Z,0.93
2019-04-25T13:47:29.204Z,0.91
2019-04-25T13:52:36.174Z,1.04
2019-04-25T13:57:42.871Z,1.00
2019-04-25T14:02:50.414Z,0.97
2019-04-25T14:07:58.205Z,0.86
2019-04-25T14:13:05.556Z,0.88
2019-04-25T14:18:13.746Z,1.04
2019-04-25T14:23:21.412Z,0.90
2019-04-25T14:28:30.678Z,0.96
2019-04-25T14:33:35.413Z,0.97
2019-04-25T14:38:42.594Z,0.85
2019-04-25T14:43:50.048Z,0.91
2019-04-25T14:48:57.602Z,1.01
2019-04-25T14:54:05.176Z,0.95
2019-04-25T14:59:12.784Z,1.05
2019-04-25T15:04:20.781Z,1.04
2019-04-25T15:09:28.798Z,1.18
2019-04-25T15:14:35.585Z,1.16
2019-04-25T15:19:43.046Z,1.14
2019-04-25T15:24:53.518Z,1.06
2019-04-25T15:29:51.104Z,1.10
2019-04-25T15:34:58.578Z,1.10
2019-04-25T15:40:06.127Z,1.19
2019-04-25T15:45:15.129Z,1.17
2019-04-25T15:50:23.790Z,1.12
2019-04-25T15:55:33.202Z,1.22
2019-04-25T16:00:41.908Z,1.29
2019-04-25T16:05:50.409Z,1.16
2019-04-25T16:10:57.947Z,1.07
2019-04-25T16:16:05.523Z,1.19
2019-04-25T16:21:13.472Z,1.22
2019-04-25T16:26:23.183Z,1.23
2019-04-25T16:31:30.779Z,1.98
2019-04-25T16:36:38.453Z,1.86
2019-04-25T16:41:46.713Z,1.62
2019-04-25T16:46:54.971Z,1.36
2019-04-25T16:52:03.078Z,1.33
2019-04-25T16:57:12.433Z,1.09
2019-04-25T17:02:32.189Z,1.07
2019-04-25T17:07:30.291Z,1.17
2019-04-25T17:12:37.304Z,0.98
2019-04-25T17:17:45.020Z,1.15
2019-04-25T17:22:52.470Z,1.12
2019-04-25T17:28:00.299Z,1.19
2019-04-25T17:33:10.197Z,1.12
2019-04-25T17:38:19.464Z,1.06
2019-04-25T17:43:25.620Z,1.09
2019-04-25T17:48:34.176Z,1.07
2019-04-25T17:53:44.470Z,0.98
2019-04-25T17:58:43.677Z,0.94
2019-04-25T18:03:55.640Z,0.93
2019-04-25T18:08:53.965Z,1.06
2019-04-25T18:14:02.625Z,1.02
2019-04-25T18:19:10.588Z,1.10
2019-04-25T18:24:20.307Z,1.49
2019-04-25T18:29:29.832Z,1.00
2019-04-25T18:34:40.057Z,0.94
2019-04-25T18:39:46.731Z,0.91
2019-04-25T18:44:53.966Z,0.95
2019-04-25T18:50:02.788Z,0.90
2019-04-25T18:55:11.612Z,0.81
2019-04-25T19:00:20.435Z,0.77
2019-04-25T19:05:30.424Z,0.76
2019-04-25T19:10:39.514Z,0.86
2019-04-25T19:15:45.732Z,0.83
2019-04-25T19:20:54.423Z,0.94
2019-04-25T19:26:03.484Z,0.86
2019-04-25T19:31:12.696Z,0.98
2019-04-25T19:36:21.325Z,0.91
2019-04-25T19:41:30.177Z,0.94
2019-04-25T19:46:40.373Z,0.85
2019-04-25T19:51:48.198Z,0.81
2019-04-25T19:56:57.508Z,0.79
2019-04-25T20:02:06.829Z,0.70
2019-04-25T20:07:15.202Z,0.78
2019-04-25T20:12:24.193Z,0.69
2019-04-25T20:17:32.755Z,0.72
2019-04-25T20:22:41.890Z,0.75
2019-04-25T20:27:50.806Z,0.79
2019-04-25T20:32:57.648Z,0.76
2019-04-25T20:38:05.642Z,0.76
2019-04-25T20:43:13.964Z,0.82
2019-04-25T20:48:22.374Z,0.78
2019-04-25T20:53:30.378Z,0.79
2019-04-25T20:58:37.940Z,0.87
2019-04-25T21:03:45.464Z,0.89
2019-04-25T21:08:53.772Z,0.86
2019-04-25T21:14:02.061Z,0.81
2019-04-25T21:19:10.704Z,0.74
2019-04-25T21:24:18.811Z,0.83
2019-04-25T21:29:29.008Z,0.96
2019-04-25T21:34:30.268Z,0.90
2019-04-25T21:39:33.184Z,0.84
2019-04-25T21:44:41.123Z,0.84
2019-04-25T21:49:48.575Z,0.94
2019-04-25T21:54:56.022Z,0.96
2019-04-25T22:00:08.003Z,0.90
2019-04-25T22:05:10.853Z,1.09
2019-04-25T22:10:18.658Z,0.99
2019-04-25T22:15:27.966Z,1.14
2019-04-25T22:20:33.564Z,1.07
2019-04-25T22:25:42.368Z,1.12
2019-04-25T22:30:49.928Z,1.19
2019-04-25T22:35:57.658Z,1.25
2019-04-25T22:41:05.591Z,1.23
2019-04-25T22:46:25.272Z,1.27
2019-04-25T22:51:21.176Z,1.31
2019-04-25T22:56:29.542Z,1.25
2019-04-25T23:01:36.909Z,1.43
2019-04-25T23:06:44.523Z,1.32
2019-04-25T23:11:52.086Z,1.49
2019-04-25T23:17:00.478Z,1.34
2019-04-25T23:22:08.085Z,1.32
2019-04-25T23:27:15.604Z,1.36
2019-04-25T23:32:23.231Z,1.35
2019-04-25T23:37:31.388Z,1.28
2019-04-25T23:42:38.489Z,1.47
2019-04-25T23:47:46.161Z,1.37
2019-04-25T23:52:53.423Z,1.36
2019-04-25T23:58:01.040Z,1.42
